sensor_id;sensor_type;location;lat;lon;timestamp;P1;durP1;ratioP1;P2;durP2;ratioP2
58460;SDS011;45558;37.752;-97.822;2023-01-01T00:02:01;1.42;;;0.60;;
58460;SDS011;45558;37.752;-97.822;2023-01-01T00:04:27;1.98;;;0.88;;
58460;SDS011;45558;37.752;-97.822;2023-01-01T00:06:52;2.08;;;0.80;;
58460;SDS011;45558;37.752;-97.822;2023-01-01T00:09:18;3.45;;;1.20;;
58460;SDS011;45558;37.752;-97.822;2023-01-01T00:12:03;2.95;;;1.15;;
58460;SDS011;45558;37.752;-97.822;2023-01-01T00:14:29;3.70;;;1.90;;
58460;SDS011;45558;37.752;-97.822;2023-01-01T00:16:55;5.45;;;3.08;;
58460;SDS011;45558;37.752;-97.822;2023-01-01T00:19:21;5.50;;;2.80;;
58460;SDS011;45558;37.752;-97.822;2023-01-01T00:21:46;7.40;;;3.83;;
58460;SDS011;45558;37.752;-97.822;2023-01-01T00:24:12;13.38;;;6.80;;
58460;SDS011;45558;37.752;-97.822;2023-01-01T00:32:24;13.52;;;5.55;;
58460;SDS011;45558;37.752;-97.822;2023-01-01T00:34:50;16.02;;;7.55;;
58460;SDS011;45558;37.752;-97.822;2023-01-01T00:37:16;33.10;;;14.07;;
58460;SDS011;45558;37.752;-97.822;2023-01-01T00:39:45;22.98;;;9.13;;
58460;SDS011;45558;37.752;-97.822;2023-01-01T00:42:10;28.15;;;12.45;;
58460;SDS011;45558;37.752;-97.822;2023-01-01T00:44:36;15.82;;;6.30;;
58460;SDS011;45558;37.752;-97.822;2023-01-01T00:47:02;6.47;;;3.75;;
58460;SDS011;45558;37.752;-97.822;2023-01-01T00:49:28;10.05;;;4.57;;
58460;SDS011;45558;37.752;-97.822;2023-01-01T00:51:54;12.65;;;5.70;;
58460;SDS011;45558;37.752;-97.822;2023-01-01T00:54:20;11.10;;;4.32;;
58460;SDS011;45558;37.752;-97.822;2023-01-01T00:56:45;9.13;;;4.28;;
58460;SDS011;45558;37.752;-97.822;2023-01-01T00:59:11;7.25;;;3.33;;
58460;SDS011;45558;37.752;-97.822;2023-01-01T01:01:37;37.95;;;21.50;;
58460;SDS011;45558;37.752;-97.822;2023-01-01T01:04:04;14.00;;;8.85;;
58460;SDS011;45558;37.752;-97.822;2023-01-01T01:06:30;8.85;;;5.28;;
58460;SDS011;45558;37.752;-97.822;2023-01-01T01:08:56;8.02;;;4.35;;
58460;SDS011;45558;37.752;-97.822;2023-01-01T01:11:23;16.38;;;8.75;;
58460;SDS011;45558;37.752;-97.822;2023-01-01T01:13:53;14.95;;;8.95;;
58460;SDS011;45558;37.752;-97.822;2023-01-01T01:16:23;13.90;;;8.32;;
58460;SDS011;45558;37.752;-97.822;2023-01-01T01:18:51;8.57;;;4.63;;
58460;SDS011;45558;37.752;-97.822;2023-01-01T01:21:18;25.80;;;12.52;;
58460;SDS011;45558;37.752;-97.822;2023-01-01T01:23:45;15.70;;;8.60;;
58460;SDS011;45558;37.752;-97.822;2023-01-01T01:28:40;10.43;;;5.20;;
58460;SDS011;45558;37.752;-97.822;2023-01-01T01:31:06;9.55;;;4.68;;
58460;SDS011;45558;37.752;-97.822;2023-01-01T01:33:32;9.05;;;5.40;;
58460;SDS011;45558;37.752;-97.822;2023-01-01T01:35:58;9.02;;;4.88;;
58460;SDS011;45558;37.752;-97.822;2023-01-01T01:38:23;12.23;;;6.53;;
58460;SDS011;45558;37.752;-97.822;2023-01-01T01:40:49;15.95;;;6.68;;
58460;SDS011;45558;37.752;-97.822;2023-01-01T01:43:22;11.25;;;5.15;;
58460;SDS011;45558;37.752;-97.822;2023-01-01T01:45:52;30.48;;;12.48;;
58460;SDS011;45558;37.752;-97.822;2023-01-01T01:48:19;16.20;;;9.07;;
58460;SDS011;45558;37.752;-97.822;2023-01-01T01:50:44;7.57;;;3.83;;
58460;SDS011;45558;37.752;-97.822;2023-01-01T01:53:12;8.60;;;4.85;;
58460;SDS011;45558;37.752;-97.822;2023-01-01T01:55:42;4.13;;;2.33;;
58460;SDS011;45558;37.752;-97.822;2023-01-01T01:58:10;7.70;;;5.88;;
58460;SDS011;45558;37.752;-97.822;2023-01-01T02:00:38;10.05;;;6.80;;
58460;SDS011;45558;37.752;-97.822;2023-01-01T02:03:07;7.32;;;3.30;;
58460;SDS011;45558;37.752;-97.822;2023-01-01T02:05:34;3.97;;;3.28;;
58460;SDS011;45558;37.752;-97.822;2023-01-01T02:08:00;9.02;;;1.98;;
58460;SDS011;45558;37.752;-97.822;2023-01-01T02:10:27;2.75;;;1.42;;
58460;SDS011;45558;37.752;-97.822;2023-01-01T02:12:53;3.35;;;1.60;;
58460;SDS011;45558;37.752;-97.822;2023-01-01T02:15:19;2.30;;;1.42;;
58460;SDS011;45558;37.752;-97.822;2023-01-01T02:23:14;5.68;;;2.17;;
58460;SDS011;45558;37.752;-97.822;2023-01-01T02:31:39;5.68;;;2.00;;
58460;SDS011;45558;37.752;-97.822;2023-01-01T02:34:08;6.40;;;2.55;;
58460;SDS011;45558;37.752;-97.822;2023-01-01T02:36:38;7.05;;;2.30;;
58460;SDS011;45558;37.752;-97.822;2023-01-01T02:39:08;5.60;;;3.05;;
58460;SDS011;45558;37.752;-97.822;2023-01-01T02:41:37;8.77;;;4.03;;
58460;SDS011;45558;37.752;-97.822;2023-01-01T02:44:04;12.65;;;5.10;;
58460;SDS011;45558;37.752;-97.822;2023-01-01T02:46:33;6.13;;;3.03;;
58460;SDS011;45558;37.752;-97.822;2023-01-01T02:49:00;11.00;;;4.88;;
58460;SDS011;45558;37.752;-97.822;2023-01-01T03:02:39;13.25;;;6.32;;
58460;SDS011;45558;37.752;-97.822;2023-01-01T03:11:23;5.28;;;2.95;;
58460;SDS011;45558;37.752;-97.822;2023-01-01T03:14:37;3.90;;;2.33;;
58460;SDS011;45558;37.752;-97.822;2023-01-01T03:17:33;5.07;;;2.45;;
58460;SDS011;45558;37.752;-97.822;2023-01-01T03:19:53;7.45;;;1.90;;
58460;SDS011;45558;37.752;-97.822;2023-01-01T03:22:20;4.22;;;2.47;;
58460;SDS011;45558;37.752;-97.822;2023-01-01T03:24:55;10.18;;;3.08;;
58460;SDS011;45558;37.752;-97.822;2023-01-01T03:27:28;4.68;;;2.20;;
58460;SDS011;45558;37.752;-97.822;2023-01-01T03:30:07;6.85;;;1.42;;
58460;SDS011;45558;37.752;-97.822;2023-01-01T03:32:36;3.13;;;1.08;;
58460;SDS011;45558;37.752;-97.822;2023-01-01T03:35:22;5.82;;;1.33;;
58460;SDS011;45558;37.752;-97.822;2023-01-01T03:37:49;4.93;;;1.10;;
58460;SDS011;45558;37.752;-97.822;2023-01-01T03:40:18;3.20;;;0.82;;
58460;SDS011;45558;37.752;-97.822;2023-01-01T03:42:49;3.90;;;0.90;;
58460;SDS011;45558;37.752;-97.822;2023-01-01T03:45:18;5.63;;;1.67;;
58460;SDS011;45558;37.752;-97.822;2023-01-01T03:47:48;4.32;;;1.25;;
58460;SDS011;45558;37.752;-97.822;2023-01-01T03:50:14;4.05;;;1.20;;
58460;SDS011;45558;37.752;-97.822;2023-01-01T03:55:41;8.80;;;1.50;;
58460;SDS011;45558;37.752;-97.822;2023-01-01T04:00:37;3.72;;;1.30;;
58460;SDS011;45558;37.752;-97.822;2023-01-01T04:03:05;7.90;;;1.17;;
58460;SDS011;45558;37.752;-97.822;2023-01-01T04:05:37;4.35;;;1.08;;
58460;SDS011;45558;37.752;-97.822;2023-01-01T04:08:05;4.78;;;1.48;;
58460;SDS011;45558;37.752;-97.822;2023-01-01T04:10:32;7.10;;;1.63;;
58460;SDS011;45558;37.752;-97.822;2023-01-01T04:12:59;9.57;;;1.20;;
58460;SDS011;45558;37.752;-97.822;2023-01-01T04:15:27;12.93;;;1.27;;
58460;SDS011;45558;37.752;-97.822;2023-01-01T04:17:53;4.30;;;0.57;;
58460;SDS011;45558;37.752;-97.822;2023-01-01T04:20:19;3.67;;;0.75;;
58460;SDS011;45558;37.752;-97.822;2023-01-01T04:22:45;6.75;;;1.17;;
58460;SDS011;45558;37.752;-97.822;2023-01-01T04:25:11;9.48;;;1.10;;
58460;SDS011;45558;37.752;-97.822;2023-01-01T04:27:38;7.63;;;1.00;;
58460;SDS011;45558;37.752;-97.822;2023-01-01T04:30:04;7.97;;;0.75;;
58460;SDS011;45558;37.752;-97.822;2023-01-01T04:32:31;9.05;;;1.25;;
58460;SDS011;45558;37.752;-97.822;2023-01-01T04:34:57;8.52;;;0.93;;
58460;SDS011;45558;37.752;-97.822;2023-01-01T04:37:23;8.93;;;1.27;;
58460;SDS011;45558;37.752;-97.822;2023-01-01T04:39:49;2.47;;;0.60;;
58460;SDS011;45558;37.752;-97.822;2023-01-01T04:42:14;6.60;;;1.00;;
58460;SDS011;45558;37.752;-97.822;2023-01-01T04:44:40;5.95;;;0.90;;
58460;SDS011;45558;37.752;-97.822;2023-01-01T04:47:06;5.10;;;0.70;;
58460;SDS011;45558;37.752;-97.822;2023-01-01T04:49:31;7.00;;;0.70;;
58460;SDS011;45558;37.752;-97.822;2023-01-01T04:51:57;6.80;;;1.00;;
58460;SDS011;45558;37.752;-97.822;2023-01-01T04:54:23;9.35;;;1.15;;
58460;SDS011;45558;37.752;-97.822;2023-01-01T04:56:57;5.38;;;1.10;;
58460;SDS011;45558;37.752;-97.822;2023-01-01T04:59:23;6.65;;;0.80;;
58460;SDS011;45558;37.752;-97.822;2023-01-01T05:01:49;8.98;;;1.88;;
58460;SDS011;45558;37.752;-97.822;2023-01-01T05:04:15;6.25;;;1.00;;
58460;SDS011;45558;37.752;-97.822;2023-01-01T05:06:41;6.30;;;0.80;;
58460;SDS011;45558;37.752;-97.822;2023-01-01T05:09:08;3.95;;;0.88;;
58460;SDS011;45558;37.752;-97.822;2023-01-01T05:11:34;8.60;;;1.40;;
58460;SDS011;45558;37.752;-97.822;2023-01-01T05:14:00;7.65;;;1.27;;
58460;SDS011;45558;37.752;-97.822;2023-01-01T05:16:30;3.47;;;1.42;;
58460;SDS011;45558;37.752;-97.822;2023-01-01T05:18:57;13.02;;;1.77;;
58460;SDS011;45558;37.752;-97.822;2023-01-01T05:21:24;5.75;;;1.15;;
58460;SDS011;45558;37.752;-97.822;2023-01-01T05:23:55;5.07;;;0.90;;
58460;SDS011;45558;37.752;-97.822;2023-01-01T05:26:23;6.00;;;1.00;;
58460;SDS011;45558;37.752;-97.822;2023-01-01T05:28:52;8.00;;;1.30;;
58460;SDS011;45558;37.752;-97.822;2023-01-01T05:31:20;7.28;;;1.40;;
58460;SDS011;45558;37.752;-97.822;2023-01-01T05:33:47;5.22;;;1.27;;
58460;SDS011;45558;37.752;-97.822;2023-01-01T05:36:14;7.55;;;1.58;;
58460;SDS011;45558;37.752;-97.822;2023-01-01T05:38:43;15.63;;;1.98;;
58460;SDS011;45558;37.752;-97.822;2023-01-01T05:41:10;9.95;;;2.60;;
58460;SDS011;45558;37.752;-97.822;2023-01-01T05:43:37;4.50;;;1.05;;
58460;SDS011;45558;37.752;-97.822;2023-01-01T05:46:10;7.30;;;1.25;;
58460;SDS011;45558;37.752;-97.822;2023-01-01T05:48:41;9.73;;;1.63;;
58460;SDS011;45558;37.752;-97.822;2023-01-01T05:51:09;9.55;;;1.10;;
58460;SDS011;45558;37.752;-97.822;2023-01-01T05:53:36;4.80;;;0.90;;
58460;SDS011;45558;37.752;-97.822;2023-01-01T05:56:02;5.90;;;1.30;;
58460;SDS011;45558;37.752;-97.822;2023-01-01T05:58:28;9.27;;;1.17;;
58460;SDS011;45558;37.752;-97.822;2023-01-01T06:00:55;9.27;;;2.60;;
58460;SDS011;45558;37.752;-97.822;2023-01-01T06:03:20;6.28;;;1.80;;
58460;SDS011;45558;37.752;-97.822;2023-01-01T06:05:46;11.63;;;1.83;;
58460;SDS011;45558;37.752;-97.822;2023-01-01T06:08:12;8.82;;;1.55;;
58460;SDS011;45558;37.752;-97.822;2023-01-01T06:10:38;10.65;;;1.63;;
58460;SDS011;45558;37.752;-97.822;2023-01-01T06:13:04;7.93;;;1.33;;
58460;SDS011;45558;37.752;-97.822;2023-01-01T06:15:30;8.82;;;1.20;;
58460;SDS011;45558;37.752;-97.822;2023-01-01T06:17:56;13.45;;;1.77;;
58460;SDS011;45558;37.752;-97.822;2023-01-01T06:20:22;5.10;;;1.27;;
58460;SDS011;45558;37.752;-97.822;2023-01-01T06:22:48;16.20;;;1.33;;
58460;SDS011;45558;37.752;-97.822;2023-01-01T06:25:14;3.97;;;1.25;;
58460;SDS011;45558;37.752;-97.822;2023-01-01T06:27:39;7.40;;;1.52;;
58460;SDS011;45558;37.752;-97.822;2023-01-01T06:30:05;7.10;;;1.27;;
58460;SDS011;45558;37.752;-97.822;2023-01-01T06:32:32;6.53;;;1.00;;
58460;SDS011;45558;37.752;-97.822;2023-01-01T06:34:58;8.75;;;1.58;;
58460;SDS011;45558;37.752;-97.822;2023-01-01T06:37:23;12.13;;;1.30;;
58460;SDS011;45558;37.752;-97.822;2023-01-01T06:39:49;4.10;;;0.88;;
58460;SDS011;45558;37.752;-97.822;2023-01-01T06:42:15;7.70;;;1.25;;
58460;SDS011;45558;37.752;-97.822;2023-01-01T06:44:40;11.20;;;1.63;;
58460;SDS011;45558;37.752;-97.822;2023-01-01T06:50:28;8.30;;;1.50;;
58460;SDS011;45558;37.752;-97.822;2023-01-01T06:52:55;13.40;;;1.67;;
58460;SDS011;45558;37.752;-97.822;2023-01-01T06:55:21;5.97;;;1.40;;
58460;SDS011;45558;37.752;-97.822;2023-01-01T06:57:50;14.98;;;1.15;;
58460;SDS011;45558;37.752;-97.822;2023-01-01T07:00:16;9.77;;;1.67;;
58460;SDS011;45558;37.752;-97.822;2023-01-01T07:02:42;7.07;;;0.93;;
58460;SDS011;45558;37.752;-97.822;2023-01-01T07:05:08;10.07;;;2.42;;
58460;SDS011;45558;37.752;-97.822;2023-01-01T07:07:34;9.73;;;1.92;;
58460;SDS011;45558;37.752;-97.822;2023-01-01T07:09:59;7.57;;;1.20;;
58460;SDS011;45558;37.752;-97.822;2023-01-01T07:12:25;6.93;;;1.10;;
58460;SDS011;45558;37.752;-97.822;2023-01-01T07:14:50;4.47;;;1.88;;
58460;SDS011;45558;37.752;-97.822;2023-01-01T07:17:16;10.02;;;3.28;;
58460;SDS011;45558;37.752;-97.822;2023-01-01T07:19:42;6.18;;;1.13;;
58460;SDS011;45558;37.752;-97.822;2023-01-01T07:22:07;8.70;;;2.38;;
58460;SDS011;45558;37.752;-97.822;2023-01-01T07:24:34;8.15;;;1.50;;
58460;SDS011;45558;37.752;-97.822;2023-01-01T07:27:00;4.57;;;2.28;;
58460;SDS011;45558;37.752;-97.822;2023-01-01T07:29:26;7.00;;;2.33;;
58460;SDS011;45558;37.752;-97.822;2023-01-01T07:31:52;8.43;;;2.22;;
58460;SDS011;45558;37.752;-97.822;2023-01-01T07:34:18;9.68;;;3.70;;
58460;SDS011;45558;37.752;-97.822;2023-01-01T07:36:43;6.07;;;1.20;;
58460;SDS011;45558;37.752;-97.822;2023-01-01T07:39:09;4.00;;;1.33;;
58460;SDS011;45558;37.752;-97.822;2023-01-01T07:41:35;8.35;;;1.40;;
58460;SDS011;45558;37.752;-97.822;2023-01-01T07:44:01;3.75;;;1.52;;
58460;SDS011;45558;37.752;-97.822;2023-01-01T07:46:26;3.95;;;1.17;;
58460;SDS011;45558;37.752;-97.822;2023-01-01T07:48:52;5.97;;;0.98;;
58460;SDS011;45558;37.752;-97.822;2023-01-01T07:51:18;3.20;;;1.00;;
58460;SDS011;45558;37.752;-97.822;2023-01-01T07:53:44;5.22;;;0.93;;
58460;SDS011;45558;37.752;-97.822;2023-01-01T07:56:09;6.40;;;1.08;;
58460;SDS011;45558;37.752;-97.822;2023-01-01T07:58:39;6.13;;;1.60;;
58460;SDS011;45558;37.752;-97.822;2023-01-01T08:01:08;4.50;;;1.10;;
58460;SDS011;45558;37.752;-97.822;2023-01-01T08:03:35;4.50;;;1.20;;
58460;SDS011;45558;37.752;-97.822;2023-01-01T08:06:05;4.03;;;0.90;;
58460;SDS011;45558;37.752;-97.822;2023-01-01T08:08:34;6.88;;;1.00;;
58460;SDS011;45558;37.752;-97.822;2023-01-01T08:11:00;6.45;;;1.02;;
58460;SDS011;45558;37.752;-97.822;2023-01-01T08:13:26;3.63;;;0.80;;
58460;SDS011;45558;37.752;-97.822;2023-01-01T08:15:51;6.68;;;1.00;;
58460;SDS011;45558;37.752;-97.822;2023-01-01T08:18:19;5.88;;;1.50;;
58460;SDS011;45558;37.752;-97.822;2023-01-01T08:20:45;12.32;;;4.22;;
58460;SDS011;45558;37.752;-97.822;2023-01-01T08:23:11;6.70;;;2.50;;
58460;SDS011;45558;37.752;-97.822;2023-01-01T08:25:37;7.13;;;0.73;;
58460;SDS011;45558;37.752;-97.822;2023-01-01T08:28:03;5.45;;;0.65;;
58460;SDS011;45558;37.752;-97.822;2023-01-01T08:30:29;5.40;;;0.85;;
58460;SDS011;45558;37.752;-97.822;2023-01-01T08:32:55;4.53;;;0.50;;
58460;SDS011;45558;37.752;-97.822;2023-01-01T08:35:20;5.20;;;0.52;;
58460;SDS011;45558;37.752;-97.822;2023-01-01T08:37:46;6.80;;;0.60;;
58460;SDS011;45558;37.752;-97.822;2023-01-01T08:40:13;2.50;;;0.50;;
58460;SDS011;45558;37.752;-97.822;2023-01-01T08:42:39;2.53;;;0.30;;
58460;SDS011;45558;37.752;-97.822;2023-01-01T08:45:05;1.77;;;0.40;;
58460;SDS011;45558;37.752;-97.822;2023-01-01T08:47:31;4.35;;;0.45;;
58460;SDS011;45558;37.752;-97.822;2023-01-01T08:49:57;1.95;;;0.22;;
58460;SDS011;45558;37.752;-97.822;2023-01-01T08:52:22;4.70;;;0.63;;
58460;SDS011;45558;37.752;-97.822;2023-01-01T08:54:48;4.28;;;0.70;;
58460;SDS011;45558;37.752;-97.822;2023-01-01T08:57:14;1.55;;;0.25;;
58460;SDS011;45558;37.752;-97.822;2023-01-01T08:59:39;2.70;;;0.30;;
58460;SDS011;45558;37.752;-97.822;2023-01-01T09:02:05;6.40;;;1.13;;
58460;SDS011;45558;37.752;-97.822;2023-01-01T09:04:31;1.35;;;0.60;;
58460;SDS011;45558;37.752;-97.822;2023-01-01T09:06:56;2.33;;;0.30;;
58460;SDS011;45558;37.752;-97.822;2023-01-01T09:09:22;3.40;;;0.30;;
58460;SDS011;45558;37.752;-97.822;2023-01-01T09:11:51;6.32;;;0.90;;
58460;SDS011;45558;37.752;-97.822;2023-01-01T09:14:18;5.05;;;0.50;;
58460;SDS011;45558;37.752;-97.822;2023-01-01T09:16:44;1.27;;;0.28;;
58460;SDS011;45558;37.752;-97.822;2023-01-01T09:19:10;6.43;;;0.45;;
58460;SDS011;45558;37.752;-97.822;2023-01-01T09:21:36;2.25;;;0.70;;
58460;SDS011;45558;37.752;-97.822;2023-01-01T09:24:01;3.72;;;0.40;;
58460;SDS011;45558;37.752;-97.822;2023-01-01T09:26:27;0.70;;;0.30;;
58460;SDS011;45558;37.752;-97.822;2023-01-01T09:28:53;4.32;;;0.68;;
58460;SDS011;45558;37.752;-97.822;2023-01-01T09:31:19;4.93;;;0.70;;
58460;SDS011;45558;37.752;-97.822;2023-01-01T09:33:44;4.72;;;0.70;;
58460;SDS011;45558;37.752;-97.822;2023-01-01T09:36:14;4.95;;;0.55;;
58460;SDS011;45558;37.752;-97.822;2023-01-01T09:38:51;2.97;;;0.70;;
58460;SDS011;45558;37.752;-97.822;2023-01-01T09:41:34;1.90;;;0.57;;
58460;SDS011;45558;37.752;-97.822;2023-01-01T09:44:20;2.00;;;0.93;;
58460;SDS011;45558;37.752;-97.822;2023-01-01T09:47:12;2.85;;;1.00;;
58460;SDS011;45558;37.752;-97.822;2023-01-01T09:49:59;3.08;;;1.10;;
58460;SDS011;45558;37.752;-97.822;2023-01-01T09:52:31;2.05;;;0.90;;
58460;SDS011;45558;37.752;-97.822;2023-01-01T09:55:05;0.80;;;0.38;;
58460;SDS011;45558;37.752;-97.822;2023-01-01T09:57:38;3.72;;;0.70;;
58460;SDS011;45558;37.752;-97.822;2023-01-01T10:00:05;3.28;;;0.77;;
58460;SDS011;45558;37.752;-97.822;2023-01-01T10:02:43;1.95;;;1.05;;
58460;SDS011;45558;37.752;-97.822;2023-01-01T10:11:16;1.75;;;0.40;;
58460;SDS011;45558;37.752;-97.822;2023-01-01T10:13:45;2.75;;;0.28;;
58460;SDS011;45558;37.752;-97.822;2023-01-01T10:16:16;1.88;;;0.30;;
58460;SDS011;45558;37.752;-97.822;2023-01-01T10:21:44;2.60;;;0.35;;
58460;SDS011;45558;37.752;-97.822;2023-01-01T10:30:22;1.60;;;0.50;;
58460;SDS011;45558;37.752;-97.822;2023-01-01T10:32:52;6.00;;;1.10;;
58460;SDS011;45558;37.752;-97.822;2023-01-01T10:35:22;4.80;;;2.47;;
58460;SDS011;45558;37.752;-97.822;2023-01-01T10:37:55;5.35;;;2.60;;
58460;SDS011;45558;37.752;-97.822;2023-01-01T10:40:23;6.55;;;4.05;;
58460;SDS011;45558;37.752;-97.822;2023-01-01T10:42:54;3.75;;;1.55;;
58460;SDS011;45558;37.752;-97.822;2023-01-01T10:55:51;1.38;;;0.70;;
58460;SDS011;45558;37.752;-97.822;2023-01-01T10:58:40;2.15;;;0.90;;
58460;SDS011;45558;37.752;-97.822;2023-01-01T11:01:31;2.50;;;1.02;;
58460;SDS011;45558;37.752;-97.822;2023-01-01T11:06:45;3.53;;;1.95;;
58460;SDS011;45558;37.752;-97.822;2023-01-01T11:09:28;4.70;;;0.60;;
58460;SDS011;45558;37.752;-97.822;2023-01-01T11:11:59;0.95;;;0.20;;
58460;SDS011;45558;37.752;-97.822;2023-01-01T11:17:08;2.67;;;0.98;;
58460;SDS011;45558;37.752;-97.822;2023-01-01T11:19:38;2.03;;;0.68;;
58460;SDS011;45558;37.752;-97.822;2023-01-01T11:22:06;0.98;;;0.65;;
58460;SDS011;45558;37.752;-97.822;2023-01-01T11:24:35;1.85;;;0.82;;
58460;SDS011;45558;37.752;-97.822;2023-01-01T11:32:48;1.80;;;0.63;;
58460;SDS011;45558;37.752;-97.822;2023-01-01T11:35:19;1.23;;;0.60;;
58460;SDS011;45558;37.752;-97.822;2023-01-01T11:37:47;2.83;;;1.15;;
58460;SDS011;45558;37.752;-97.822;2023-01-01T11:40:48;8.75;;;2.85;;
58460;SDS011;45558;37.752;-97.822;2023-01-01T11:43:12;4.95;;;1.98;;
58460;SDS011;45558;37.752;-97.822;2023-01-01T11:50:53;4.65;;;2.58;;
58460;SDS011;45558;37.752;-97.822;2023-01-01T11:58:33;12.93;;;5.38;;
58460;SDS011;45558;37.752;-97.822;2023-01-01T12:01:15;3.08;;;0.82;;
58460;SDS011;45558;37.752;-97.822;2023-01-01T12:03:53;10.05;;;3.60;;
58460;SDS011;45558;37.752;-97.822;2023-01-01T12:12:35;4.43;;;2.28;;
58460;SDS011;45558;37.752;-97.822;2023-01-01T12:18:10;5.63;;;2.60;;
58460;SDS011;45558;37.752;-97.822;2023-01-01T12:20:51;4.45;;;2.22;;
58460;SDS011;45558;37.752;-97.822;2023-01-01T12:23:39;5.97;;;2.88;;
58460;SDS011;45558;37.752;-97.822;2023-01-01T12:26:14;10.32;;;4.90;;
58460;SDS011;45558;37.752;-97.822;2023-01-01T12:29:14;6.63;;;3.17;;
58460;SDS011;45558;37.752;-97.822;2023-01-01T12:32:13;6.65;;;4.07;;
58460;SDS011;45558;37.752;-97.822;2023-01-01T12:35:17;7.07;;;4.13;;
58460;SDS011;45558;37.752;-97.822;2023-01-01T12:43:01;1.80;;;0.98;;
58460;SDS011;45558;37.752;-97.822;2023-01-01T12:45:33;5.20;;;1.23;;
58460;SDS011;45558;37.752;-97.822;2023-01-01T12:51:04;2.72;;;0.90;;
58460;SDS011;45558;37.752;-97.822;2023-01-01T12:56:14;3.08;;;1.13;;
58460;SDS011;45558;37.752;-97.822;2023-01-01T13:01:39;5.85;;;2.30;;
58460;SDS011;45558;37.752;-97.822;2023-01-01T13:04:16;1.42;;;1.10;;
58460;SDS011;45558;37.752;-97.822;2023-01-01T13:06:50;2.50;;;1.58;;
58460;SDS011;45558;37.752;-97.822;2023-01-01T13:09:20;6.90;;;4.13;;
58460;SDS011;45558;37.752;-97.822;2023-01-01T13:11:50;2.75;;;1.98;;
58460;SDS011;45558;37.752;-97.822;2023-01-01T13:14:18;10.88;;;4.95;;
58460;SDS011;45558;37.752;-97.822;2023-01-01T13:16:47;10.75;;;5.45;;
58460;SDS011;45558;37.752;-97.822;2023-01-01T13:19:29;5.85;;;3.55;;
58460;SDS011;45558;37.752;-97.822;2023-01-01T13:21:55;9.45;;;5.30;;
58460;SDS011;45558;37.752;-97.822;2023-01-01T13:24:22;19.10;;;8.75;;
58460;SDS011;45558;37.752;-97.822;2023-01-01T13:26:49;17.40;;;7.80;;
58460;SDS011;45558;37.752;-97.822;2023-01-01T13:37:30;9.52;;;4.88;;
58460;SDS011;45558;37.752;-97.822;2023-01-01T13:45:34;7.05;;;3.17;;
58460;SDS011;45558;37.752;-97.822;2023-01-01T13:53:36;1.00;;;0.65;;
58460;SDS011;45558;37.752;-97.822;2023-01-01T14:10:17;14.25;;;6.25;;
58460;SDS011;45558;37.752;-97.822;2023-01-01T14:12:47;8.32;;;3.40;;
58460;SDS011;45558;37.752;-97.822;2023-01-01T14:15:32;2.83;;;0.50;;
58460;SDS011;45558;37.752;-97.822;2023-01-01T14:17:59;2.65;;;0.30;;
58460;SDS011;45558;37.752;-97.822;2023-01-01T14:20:34;1.33;;;0.80;;
58460;SDS011;45558;37.752;-97.822;2023-01-01T14:23:05;2.72;;;0.40;;
58460;SDS011;45558;37.752;-97.822;2023-01-01T14:25:34;3.40;;;1.52;;
58460;SDS011;45558;37.752;-97.822;2023-01-01T14:28:00;2.38;;;1.08;;
58460;SDS011;45558;37.752;-97.822;2023-01-01T14:30:27;1.17;;;0.50;;
58460;SDS011;45558;37.752;-97.822;2023-01-01T14:32:56;1.55;;;0.82;;
58460;SDS011;45558;37.752;-97.822;2023-01-01T14:35:26;2.17;;;0.80;;
58460;SDS011;45558;37.752;-97.822;2023-01-01T14:37:52;2.10;;;0.70;;
58460;SDS011;45558;37.752;-97.822;2023-01-01T14:42:58;1.17;;;0.63;;
58460;SDS011;45558;37.752;-97.822;2023-01-01T14:45:28;3.88;;;1.05;;
58460;SDS011;45558;37.752;-97.822;2023-01-01T14:47:54;1.15;;;0.43;;
58460;SDS011;45558;37.752;-97.822;2023-01-01T14:50:25;3.90;;;1.13;;
58460;SDS011;45558;37.752;-97.822;2023-01-01T14:52:55;2.42;;;1.27;;
58460;SDS011;45558;37.752;-97.822;2023-01-01T14:55:26;31.52;;;12.48;;
58460;SDS011;45558;37.752;-97.822;2023-01-01T14:57:56;14.23;;;6.55;;
58460;SDS011;45558;37.752;-97.822;2023-01-01T15:00:25;4.30;;;2.22;;
58460;SDS011;45558;37.752;-97.822;2023-01-01T15:02:52;21.58;;;9.27;;
58460;SDS011;45558;37.752;-97.822;2023-01-01T15:05:30;1.55;;;0.80;;
58460;SDS011;45558;37.752;-97.822;2023-01-01T15:07:58;2.83;;;1.00;;
58460;SDS011;45558;37.752;-97.822;2023-01-01T15:10:29;1.80;;;1.20;;
58460;SDS011;45558;37.752;-97.822;2023-01-01T15:12:58;2.40;;;0.60;;
58460;SDS011;45558;37.752;-97.822;2023-01-01T15:15:34;4.32;;;2.03;;
58460;SDS011;45558;37.752;-97.822;2023-01-01T15:21:15;6.70;;;3.65;;
58460;SDS011;45558;37.752;-97.822;2023-01-01T15:24:12;2.08;;;1.05;;
58460;SDS011;45558;37.752;-97.822;2023-01-01T15:26:43;1.88;;;0.88;;
58460;SDS011;45558;37.752;-97.822;2023-01-01T15:29:19;3.33;;;1.70;;
58460;SDS011;45558;37.752;-97.822;2023-01-01T15:31:52;1.67;;;1.00;;
58460;SDS011;45558;37.752;-97.822;2023-01-01T15:34:22;3.33;;;1.73;;
58460;SDS011;45558;37.752;-97.822;2023-01-01T15:36:54;5.22;;;2.53;;
58460;SDS011;45558;37.752;-97.822;2023-01-01T15:39:21;1.45;;;0.80;;
58460;SDS011;45558;37.752;-97.822;2023-01-01T15:41:48;2.58;;;0.60;;
58460;SDS011;45558;37.752;-97.822;2023-01-01T15:44:16;1.27;;;0.93;;
58460;SDS011;45558;37.752;-97.822;2023-01-01T15:46:45;2.72;;;0.68;;
58460;SDS011;45558;37.752;-97.822;2023-01-01T15:49:25;1.30;;;0.60;;
58460;SDS011;45558;37.752;-97.822;2023-01-01T15:51:56;1.23;;;0.60;;
58460;SDS011;45558;37.752;-97.822;2023-01-01T15:54:25;1.08;;;0.80;;
58460;SDS011;45558;37.752;-97.822;2023-01-01T15:56:51;1.10;;;0.60;;
58460;SDS011;45558;37.752;-97.822;2023-01-01T16:01:45;2.10;;;0.50;;
58460;SDS011;45558;37.752;-97.822;2023-01-01T16:04:16;0.45;;;0.40;;
58460;SDS011;45558;37.752;-97.822;2023-01-01T16:10:05;3.25;;;0.45;;
58460;SDS011;45558;37.752;-97.822;2023-01-01T16:12:38;1.17;;;0.73;;
58460;SDS011;45558;37.752;-97.822;2023-01-01T16:15:04;1.38;;;0.90;;
58460;SDS011;45558;37.752;-97.822;2023-01-01T16:17:29;1.75;;;0.90;;
58460;SDS011;45558;37.752;-97.822;2023-01-01T16:19:55;3.97;;;2.13;;
58460;SDS011;45558;37.752;-97.822;2023-01-01T16:22:21;1.27;;;0.50;;
58460;SDS011;45558;37.752;-97.822;2023-01-01T16:24:46;1.83;;;0.95;;
58460;SDS011;45558;37.752;-97.822;2023-01-01T16:27:12;1.95;;;1.48;;
58460;SDS011;45558;37.752;-97.822;2023-01-01T16:29:38;4.47;;;1.77;;
58460;SDS011;45558;37.752;-97.822;2023-01-01T16:32:04;1.83;;;0.82;;
58460;SDS011;45558;37.752;-97.822;2023-01-01T16:34:30;4.18;;;2.47;;
58460;SDS011;45558;37.752;-97.822;2023-01-01T16:36:55;1.13;;;0.63;;
58460;SDS011;45558;37.752;-97.822;2023-01-01T16:39:21;1.83;;;0.70;;
58460;SDS011;45558;37.752;-97.822;2023-01-01T16:41:47;2.10;;;1.08;;
58460;SDS011;45558;37.752;-97.822;2023-01-01T16:44:13;11.55;;;7.65;;
58460;SDS011;45558;37.752;-97.822;2023-01-01T16:46:41;3.53;;;1.95;;
58460;SDS011;45558;37.752;-97.822;2023-01-01T16:49:07;5.95;;;2.33;;
58460;SDS011;45558;37.752;-97.822;2023-01-01T16:51:33;0.85;;;0.60;;
58460;SDS011;45558;37.752;-97.822;2023-01-01T16:53:59;1.27;;;0.80;;
58460;SDS011;45558;37.752;-97.822;2023-01-01T16:56:26;1.42;;;0.90;;
58460;SDS011;45558;37.752;-97.822;2023-01-01T16:58:52;0.98;;;0.70;;
58460;SDS011;45558;37.752;-97.822;2023-01-01T17:01:19;1.08;;;0.80;;
58460;SDS011;45558;37.752;-97.822;2023-01-01T17:03:45;2.70;;;0.80;;
58460;SDS011;45558;37.752;-97.822;2023-01-01T17:06:11;2.38;;;1.38;;
58460;SDS011;45558;37.752;-97.822;2023-01-01T17:08:37;1.98;;;1.40;;
58460;SDS011;45558;37.752;-97.822;2023-01-01T17:11:04;1.27;;;1.05;;